Time;durP1;ratioP1;P1;durP2;ratioP2;P2;SDS_P1;SDS_P2;PMS_P1;PMS_P2;Temp;Humidity;BMP_temperature;BMP_pressure;BME280_temperature;BME280_humidity;BME280_pressure;Samples;Min_cycle;Max_cycle;Signal;HPM_P1;HPM_P2
2022/09/15 00:00:08;;;;;;;2.60;1.83;;;15.80;99.90;;;;;;5011354;28;20526;-49
2022/09/15 00:02:35;;;;;;;1.90;1.30;;;15.70;99.90;;;;;;5011981;28;20459;-51
2022/09/15 00:05:02;;;;;;;8.20;1.67;;;15.80;99.90;;;;;;5011553;28;20479;-50
2022/09/15 00:07:30;;;;;;;2.50;1.40;;;15.80;99.90;;;;;;5011651;28;20456;-51
2022/09/15 00:09:57;;;;;;;2.33;1.40;;;15.70;99.90;;;;;;5009243;28;20439;-49
2022/09/15 00:12:24;;;;;;;4.10;1.80;;;15.50;99.90;;;;;;5011826;28;20517;-49
2022/09/15 00:14:51;;;;;;;2.47;1.67;;;15.20;99.90;;;;;;5011606;28;20250;-49
2022/09/15 00:17:19;;;;;;;4.10;1.60;;;15.10;99.90;;;;;;5011776;28;20710;-49
2022/09/15 00:19:46;;;;;;;2.50;1.70;;;15.30;99.90;;;;;;5010819;28;20498;-50
2022/09/15 00:22:13;;;;;;;1.80;1.60;;;15.00;99.90;;;;;;5011486;28;20451;-49
2022/09/15 00:24:41;;;;;;;1.90;1.40;;;15.10;99.90;;;;;;5011172;28;20500;-49
2022/09/15 00:27:08;;;;;;;4.40;1.73;;;15.00;99.90;;;;;;5011100;28;20482;-49
2022/09/15 00:29:35;;;;;;;2.60;1.43;;;15.10;99.90;;;;;;5010701;28;20435;-50
2022/09/15 00:32:03;;;;;;;3.17;1.70;;;15.20;99.90;;;;;;5011483;28;20439;-49
2022/09/15 00:34:31;;;;;;;2.55;1.70;;;15.40;99.90;;;;;;5011421;28;20872;-49
2022/09/15 00:36:58;;;;;;;1.70;1.10;;;15.60;99.90;;;;;;5010835;28;20266;-49
2022/09/15 00:39:25;;;;;;;1.80;1.40;;;15.80;99.90;;;;;;5010773;28;20521;-49
2022/09/15 00:41:52;;;;;;;2.50;1.50;;;15.90;99.90;;;;;;5011412;28;20447;-49
2022/09/15 00:45:02;;;;;;;1.80;1.47;;;15.90;99.90;;;;;;5010699;28;20502;-49
2022/09/15 00:47:32;;;;;;;6.13;1.40;;;15.80;99.90;;;;;;4996012;28;20493;-49
2022/09/15 00:50:06;;;;;;;2.07;1.30;;;15.90;99.90;;;;;;5010724;28;20454;-49
2022/09/15 00:52:38;;;;;;;1.73;1.03;;;16.00;99.90;;;;;;5011175;28;20488;-50
2022/09/15 00:55:09;;;;;;;2.30;1.90;;;15.70;99.90;;;;;;5011074;28;20451;-49
2022/09/15 00:57:39;;;;;;;2.50;1.33;;;15.60;99.90;;;;;;5011235;28;20641;-49
2022/09/15 01:00:10;;;;;;;2.63;1.97;;;15.40;99.90;;;;;;5010211;28;20509;-49
2022/09/15 01:02:38;;;;;;;2.87;1.47;;;15.40;99.90;;;;;;5010957;28;20468;-51
2022/09/15 01:05:10;;;;;;;3.40;1.40;;;15.40;99.90;;;;;;5010705;28;20431;-50
2022/09/15 01:07:41;;;;;;;2.43;1.53;;;15.70;99.90;;;;;;5010488;28;20479;-52
2022/09/15 01:10:13;;;;;;;3.90;1.40;;;15.80;99.90;;;;;;5010193;28;20442;-49
2022/09/15 01:12:41;;;;;;;2.40;1.40;;;15.90;99.90;;;;;;5011075;28;20497;-49
2022/09/15 01:15:09;;;;;;;6.83;1.60;;;15.90;99.90;;;;;;5010936;28;20471;-49
2022/09/15 01:17:49;;;;;;;2.50;1.63;;;16.00;99.90;;;;;;5011035;28;21012;-49
2022/09/15 01:21:00;;;;;;;2.87;1.30;;;15.90;99.90;;;;;;5010326;28;20494;-50
2022/09/15 01:24:04;;;;;;;4.03;1.80;;;15.80;99.90;;;;;;5010933;28;20481;-49
2022/09/15 01:27:03;;;;;;;2.43;1.80;;;15.30;99.90;;;;;;5010667;28;20789;-49
2022/09/15 01:29:57;;;;;;;3.63;1.83;;;15.40;99.90;;;;;;5011755;28;20454;-50
2022/09/15 01:35:24;;;;;;;2.22;1.70;;;15.40;99.90;;;;;;5014399;28;20920;-49
2022/09/15 01:37:57;;;;;;;1.90;1.63;;;15.50;99.90;;;;;;5014623;28;20392;-51
2022/09/15 01:40:32;;;;;;;1.80;1.47;;;15.60;99.90;;;;;;5014175;28;20479;-49
2022/09/15 01:43:00;;;;;;;2.00;1.77;;;16.00;99.90;;;;;;5013899;28;20450;-49
2022/09/15 01:45:32;;;;;;;1.70;1.20;;;16.20;99.90;;;;;;5014287;28;20454;-51
2022/09/15 01:48:01;;;;;;;2.10;1.67;;;16.00;99.90;;;;;;5014135;28;20477;-49
2022/09/15 01:50:32;;;;;;;3.70;1.20;;;16.20;99.90;;;;;;5013547;28;20501;-50
2022/09/15 01:53:03;;;;;;;2.00;1.50;;;15.90;99.90;;;;;;5014293;28;20928;-49
2022/09/15 01:55:36;;;;;;;1.90;1.23;;;15.80;99.90;;;;;;5014300;28;20482;-50
2022/09/15 01:58:03;;;;;;;4.40;1.23;;;15.90;99.90;;;;;;5013841;28;20502;-50
2022/09/15 02:00:33;;;;;;;1.77;1.40;;;15.90;99.90;;;;;;5013813;28;20478;-51
2022/09/15 02:03:05;;;;;;;2.60;1.67;;;15.70;99.90;;;;;;5014101;28;20479;-49
2022/09/15 02:05:38;;;;;;;2.13;1.27;;;15.70;99.90;;;;;;5013985;28;20952;-49
2022/09/15 02:08:10;;;;;;;2.70;1.40;;;15.80;99.90;;;;;;5012436;28;20474;-49
2022/09/15 02:10:42;;;;;;;2.30;1.63;;;16.00;99.90;;;;;;5013247;28;20434;-49
2022/09/15 02:13:14;;;;;;;2.53;1.70;;;16.10;99.90;;;;;;5013855;28;20490;-51
2022/09/15 02:15:46;;;;;;;1.90;1.60;;;16.00;99.90;;;;;;5013968;28;20505;-49
2022/09/15 02:18:17;;;;;;;2.07;1.50;;;15.90;99.90;;;;;;5013580;28;20456;-49
2022/09/15 02:20:48;;;;;;;3.03;1.37;;;15.80;99.90;;;;;;5012773;28;20471;-50
2022/09/15 02:23:20;;;;;;;1.50;1.07;;;15.70;99.90;;;;;;5013709;28;20455;-49
2022/09/15 02:25:51;;;;;;;2.40;1.90;;;15.70;99.90;;;;;;5013495;28;20447;-49
2022/09/15 02:28:22;;;;;;;2.20;1.60;;;15.80;99.90;;;;;;5013363;28;20468;-49
2022/09/15 02:30:55;;;;;;;5.30;1.70;;;15.60;99.90;;;;;;5012980;28;20459;-49
2022/09/15 02:33:25;;;;;;;3.43;1.90;;;15.20;99.90;;;;;;5013508;28;20821;-49
2022/09/15 02:35:52;;;;;;;3.10;1.80;;;15.00;99.90;;;;;;5013178;28;20431;-49
2022/09/15 02:38:20;;;;;;;1.83;1.57;;;14.90;99.90;;;;;;5013472;28;20867;-49
2022/09/15 02:40:47;;;;;;;3.30;1.80;;;14.90;99.90;;;;;;5011421;28;20451;-50
2022/09/15 02:43:17;;;;;;;1.77;1.60;;;15.00;99.90;;;;;;5012686;28;20451;-49
2022/09/15 02:45:44;;;;;;;1.90;1.60;;;15.30;99.90;;;;;;5013309;28;20451;-49
2022/09/15 02:48:13;;;;;;;2.57;1.90;;;15.40;99.90;;;;;;5013042;28;20796;-49
2022/09/15 02:50:41;;;;;;;2.30;1.70;;;15.50;99.90;;;;;;5012236;28;20435;-49
2022/09/15 02:53:08;;;;;;;3.03;1.60;;;15.50;99.90;;;;;;5013243;28;20449;-50
2022/09/15 02:55:35;;;;;;;2.40;1.53;;;15.30;99.90;;;;;;5013328;28;20207;-49
2022/09/15 02:58:02;;;;;;;3.50;2.07;;;15.20;99.90;;;;;;5013011;28;20463;-49
2022/09/15 03:00:29;;;;;;;4.03;1.90;;;15.30;99.90;;;;;;5012256;28;20447;-49
2022/09/15 03:02:57;;;;;;;6.13;2.37;;;15.50;99.90;;;;;;5012953;28;20522;-50
2022/09/15 03:05:28;;;;;;;2.53;1.40;;;15.70;99.90;;;;;;5013158;28;21014;-49
2022/09/15 03:07:55;;;;;;;2.00;1.63;;;15.90;99.90;;;;;;5010856;28;20533;-50
2022/09/15 03:10:24;;;;;;;3.80;1.50;;;16.00;99.90;;;;;;5012066;28;20513;-49
2022/09/15 03:12:53;;;;;;;2.10;1.60;;;15.80;99.90;;;;;;5012594;28;20427;-49
2022/09/15 03:15:22;;;;;;;2.10;1.60;;;15.60;99.90;;;;;;5012807;28;20487;-49
2022/09/15 03:17:49;;;;;;;2.67;1.93;;;15.40;99.90;;;;;;5012500;28;20270;-49
2022/09/15 03:20:19;;;;;;;2.47;1.80;;;15.10;99.90;;;;;;5011900;28;20479;-49
2022/09/15 03:22:48;;;;;;;3.07;2.03;;;15.20;99.90;;;;;;5012572;28;20447;-49
2022/09/15 03:25:16;;;;;;;2.80;1.98;;;15.40;99.90;;;;;;5012425;28;20859;-50
2022/09/15 03:27:43;;;;;;;2.43;1.63;;;15.40;99.90;;;;;;5012196;28;20232;-49
2022/09/15 03:30:12;;;;;;;2.10;1.77;;;15.60;99.90;;;;;;5011862;28;20486;-50
2022/09/15 03:32:39;;;;;;;2.97;1.67;;;15.70;99.90;;;;;;5012539;28;20537;-49
2022/09/15 03:35:07;;;;;;;2.83;1.60;;;15.70;99.90;;;;;;5012293;28;20212;-49
2022/09/15 03:37:34;;;;;;;2.80;1.90;;;15.70;99.90;;;;;;5012172;28;20485;-49
2022/09/15 03:40:04;;;;;;;2.30;2.10;;;15.70;99.90;;;;;;5011743;28;20196;-49
2022/09/15 03:42:31;;;;;;;4.20;2.13;;;15.80;99.90;;;;;;5010003;28;20443;-50
2022/09/15 03:44:58;;;;;;;3.00;1.80;;;15.70;99.90;;;;;;5012330;28;20448;-49
2022/09/15 03:47:25;;;;;;;1.87;1.60;;;15.80;99.90;;;;;;5011849;28;20487;-49
2022/09/15 03:49:52;;;;;;;3.23;2.20;;;15.70;99.90;;;;;;5011449;28;20479;-50
2022/09/15 03:52:18;;;;;;;1.90;1.63;;;15.70;99.90;;;;;;5011747;28;20448;-50
2022/09/15 03:54:48;;;;;;;4.10;2.50;;;15.50;99.90;;;;;;5011815;28;20469;-51
2022/09/15 03:57:16;;;;;;;2.43;2.10;;;15.10;99.90;;;;;;5011957;28;20482;-49
2022/09/15 03:59:43;;;;;;;3.17;2.53;;;15.00;99.90;;;;;;5011228;28;20454;-49
2022/09/15 04:02:10;;;;;;;3.43;2.37;;;15.10;99.90;;;;;;5011774;28;20436;-51
2022/09/15 04:04:37;;;;;;;2.70;2.37;;;15.30;99.90;;;;;;5011552;28;20952;-49
2022/09/15 04:07:04;;;;;;;2.60;2.13;;;15.40;99.90;;;;;;5011489;28;20498;-49
2022/09/15 04:09:31;;;;;;;4.27;2.50;;;15.30;99.90;;;;;;5009469;28;20439;-49
2022/09/15 04:11:58;;;;;;;4.27;3.03;;;15.50;99.90;;;;;;5011896;28;20455;-49
2022/09/15 04:14:26;;;;;;;4.10;3.33;;;15.50;99.90;;;;;;5011806;28;20479;-50
2022/09/15 04:16:53;;;;;;;3.78;1.88;;;15.50;99.90;;;;;;5011833;28;20450;-50
2022/09/15 04:19:20;;;;;;;2.40;1.70;;;15.50;99.90;;;;;;5010979;28;20234;-50
2022/09/15 04:21:47;;;;;;;3.90;1.97;;;15.50;99.90;;;;;;5011698;28;20478;-51
2022/09/15 04:24:14;;;;;;;2.20;2.00;;;15.40;99.90;;;;;;5011363;28;21013;-49
2022/09/15 04:26:41;;;;;;;3.30;2.20;;;15.50;99.90;;;;;;5011354;28;20466;-49
2022/09/15 04:29:13;;;;;;;3.13;2.10;;;15.70;99.90;;;;;;5012185;28;20570;-51
2022/09/15 04:31:42;;;;;;;2.60;1.70;;;15.60;99.90;;;;;;5011848;28;20486;-50
2022/09/15 04:34:09;;;;;;;2.27;2.07;;;15.30;99.90;;;;;;5011310;28;20233;-49
2022/09/15 04:36:36;;;;;;;2.43;1.63;;;15.00;99.90;;;;;;5011321;28;20475;-50
2022/09/15 04:39:05;;;;;;;3.70;2.20;;;14.80;99.90;;;;;;5010538;28;20564;-49
2022/09/15 04:41:33;;;;;;;3.65;2.95;;;14.80;99.90;;;;;;5011468;28;20437;-49
2022/09/15 04:44:00;;;;;;;3.10;2.40;;;14.90;99.90;;;;;;5010947;28;20192;-49
2022/09/15 04:46:28;;;;;;;3.67;2.77;;;15.10;99.90;;;;;;5011189;28;20443;-50
2022/09/15 04:48:56;;;;;;;3.33;3.00;;;15.30;99.90;;;;;;5010701;28;20825;-49
2022/09/15 04:51:24;;;;;;;2.93;2.63;;;15.30;99.90;;;;;;5011122;28;21005;-49
2022/09/15 04:53:51;;;;;;;3.17;2.87;;;15.30;99.90;;;;;;5010930;28;20435;-49
2022/09/15 04:56:20;;;;;;;2.77;2.50;;;15.30;99.90;;;;;;5011670;28;20447;-49
2022/09/15 04:58:50;;;;;;;3.90;3.30;;;15.40;99.90;;;;;;5010651;28;20463;-47
2022/09/15 05:01:18;;;;;;;2.90;2.40;;;15.50;99.90;;;;;;5011308;28;20489;-50
2022/09/15 05:03:46;;;;;;;6.70;4.30;;;15.30;99.90;;;;;;5011872;28;20542;-50
2022/09/15 05:06:16;;;;;;;3.23;2.50;;;15.00;99.90;;;;;;5015439;28;20946;-49
2022/09/15 05:08:43;;;;;;;7.67;4.30;;;15.00;99.90;;;;;;5012628;28;20513;-49
2022/09/15 05:11:12;;;;;;;3.53;3.00;;;15.10;99.90;;;;;;5015033;28;20489;-50
2022/09/15 05:13:40;;;;;;;4.17;3.10;;;15.20;99.90;;;;;;5015196;28;20857;-50
2022/09/15 05:16:10;;;;;;;7.35;3.10;;;15.30;99.90;;;;;;5014772;28;20433;-50
2022/09/15 05:18:38;;;;;;;3.10;2.80;;;15.20;99.90;;;;;;5014698;28;20279;-53
2022/09/15 05:21:06;;;;;;;4.10;3.60;;;15.30;99.90;;;;;;5014729;28;20797;-49
2022/09/15 05:23:35;;;;;;;5.00;4.60;;;15.20;99.90;;;;;;5014886;28;20504;-50
2022/09/15 05:26:04;;;;;;;5.70;3.77;;;15.00;99.90;;;;;;5014722;28;20862;-50
2022/09/15 05:28:32;;;;;;;20.00;16.00;;;15.20;99.90;;;;;;5014481;28;20486;-50
2022/09/15 05:30:59;;;;;;;6.63;5.93;;;15.30;99.90;;;;;;5013908;28;20443;-50
2022/09/15 05:33:26;;;;;;;4.43;3.90;;;15.40;99.90;;;;;;5014919;28;20492;-50
2022/09/15 05:35:56;;;;;;;5.67;3.47;;;15.50;99.90;;;;;;5014628;28;20486;-50
2022/09/15 05:38:23;;;;;;;4.37;3.40;;;15.60;99.90;;;;;;5014140;28;20450;-50
2022/09/15 05:40:52;;;;;;;4.00;3.60;;;15.60;99.90;;;;;;5013918;28;20482;-50
2022/09/15 05:43:19;;;;;;;4.10;3.40;;;15.70;99.90;;;;;;5013330;28;20954;-50
2022/09/15 05:45:54;;;;;;;4.43;3.17;;;15.40;99.90;;;;;;5014232;28;20427;-49
2022/09/15 05:48:21;;;;;;;6.80;5.80;;;15.30;99.90;;;;;;5013970;28;20972;-49
2022/09/15 05:50:50;;;;;;;10.75;8.52;;;15.40;99.90;;;;;;5013833;28;20536;-50
2022/09/15 05:53:17;;;;;;;6.53;5.80;;;15.60;99.90;;;;;;5014578;28;20196;-50
2022/09/15 05:55:44;;;;;;;7.43;6.70;;;15.70;99.90;;;;;;5014210;28;20452;-50
2022/09/15 05:58:13;;;;;;;5.80;4.03;;;15.80;99.90;;;;;;5014319;28;21105;-50
2022/09/15 06:00:41;;;;;;;5.00;4.40;;;15.80;99.90;;;;;;5012538;28;20619;-50
2022/09/15 06:03:13;;;;;;;4.28;2.80;;;15.80;99.90;;;;;;5013696;28;20451;-50
2022/09/15 06:05:40;;;;;;;3.58;3.20;;;15.80;99.90;;;;;;5014377;28;20228;-50
2022/09/15 06:08:07;;;;;;;4.17;3.20;;;15.80;99.90;;;;;;5012138;28;20244;-50
2022/09/15 06:10:34;;;;;;;3.80;3.30;;;15.70;99.90;;;;;;5013283;28;20431;-50
2022/09/15 06:13:01;;;;;;;3.80;3.33;;;15.80;99.90;;;;;;5013759;28;20485;-50
2022/09/15 06:15:30;;;;;;;5.10;3.30;;;15.80;99.90;;;;;;5013454;28;20474;-50
2022/09/15 06:17:57;;;;;;;3.10;2.80;;;15.80;99.90;;;;;;5013894;28;20510;-50
2022/09/15 06:20:25;;;;;;;5.33;2.60;;;15.80;99.90;;;;;;5012895;28;20875;-50
2022/09/15 06:22:54;;;;;;;2.53;2.00;;;15.80;99.90;;;;;;5013955;28;20449;-50
2022/09/15 06:25:21;;;;;;;2.58;2.20;;;15.70;99.90;;;;;;5013648;28;20439;-51
2022/09/15 06:27:49;;;;;;;3.77;2.30;;;15.50;99.90;;;;;;5013566;28;20230;-50
2022/09/15 06:30:16;;;;;;;3.30;2.97;;;15.40;99.90;;;;;;5013019;28;20877;-50
2022/09/15 06:32:45;;;;;;;3.43;2.13;;;15.40;99.90;;;;;;5013312;28;20954;-50
2022/09/15 06:35:12;;;;;;;3.20;2.03;;;15.70;99.90;;;;;;5013458;28;20509;-50
2022/09/15 06:37:39;;;;;;;2.80;2.20;;;15.80;99.90;;;;;;5013515;28;20459;-50
2022/09/15 06:40:07;;;;;;;3.30;1.83;;;15.80;99.90;;;;;;5012894;28;20447;-50
2022/09/15 06:42:34;;;;;;;2.27;1.70;;;15.70;99.90;;;;;;5012844;28;20424;-51
2022/09/15 06:45:03;;;;;;;4.67;3.20;;;15.80;99.90;;;;;;5013363;28;20471;-49
2022/09/15 06:47:32;;;;;;;7.50;4.03;;;15.90;99.90;;;;;;5013044;28;20512;-48
2022/09/15 06:50:02;;;;;;;4.47;3.20;;;15.90;99.90;;;;;;5012736;28;20262;-50
2022/09/15 06:52:29;;;;;;;5.07;3.17;;;15.90;99.90;;;;;;5013130;28;20455;-51
2022/09/15 06:54:56;;;;;;;4.17;3.37;;;15.70;99.90;;;;;;5013611;28;20778;-50
2022/09/15 06:57:23;;;;;;;4.87;3.40;;;15.20;99.90;;;;;;5013198;28;20460;-50
2022/09/15 06:59:50;;;;;;;4.40;3.60;;;15.10;99.90;;;;;;5012505;28;20486;-49
2022/09/15 07:02:17;;;;;;;3.67;3.37;;;15.10;99.90;;;;;;5013335;28;20510;-50
2022/09/15 07:04:44;;;;;;;4.03;3.00;;;15.40;99.90;;;;;;5012808;28;20443;-50
2022/09/15 07:07:12;;;;;;;5.50;3.70;;;15.50;99.90;;;;;;5012445;28;20978;-49
2022/09/15 07:09:39;;;;;;;4.57;3.83;;;15.70;99.90;;;;;;5010651;28;20459;-50
2022/09/15 07:12:07;;;;;;;5.03;3.57;;;15.80;99.90;;;;;;5012744;28;20978;-50
2022/09/15 07:14:33;;;;;;;3.15;2.85;;;15.90;99.90;;;;;;5012578;28;20430;-49
2022/09/15 07:17:00;;;;;;;4.37;3.30;;;15.80;99.90;;;;;;5012797;28;20228;-50
2022/09/15 07:19:27;;;;;;;4.37;3.93;;;15.70;99.90;;;;;;5011900;28;20442;-49
2022/09/15 07:21:54;;;;;;;3.30;2.90;;;15.60;99.90;;;;;;5012298;28;20835;-50
2022/09/15 07:24:23;;;;;;;3.47;3.17;;;15.70;99.90;;;;;;5012788;28;20435;-50
2022/09/15 07:26:50;;;;;;;3.85;2.85;;;15.70;99.90;;;;;;5012184;28;20938;-49
2022/09/15 07:29:17;;;;;;;3.43;2.73;;;16.00;99.90;;;;;;5011749;28;20228;-50
2022/09/15 07:31:44;;;;;;;3.87;3.33;;;16.00;99.90;;;;;;5012193;28;20493;-50
2022/09/15 07:34:11;;;;;;;2.93;2.60;;;15.80;99.90;;;;;;5012557;28;20474;-50
2022/09/15 07:36:38;;;;;;;2.53;2.33;;;15.80;99.90;;;;;;5012553;28;20439;-50
2022/09/15 07:39:05;;;;;;;2.00;1.80;;;15.80;99.90;;;;;;5011734;28;20456;-50
2022/09/15 07:41:34;;;;;;;2.30;2.10;;;15.60;99.90;;;;;;5012115;28;20824;-50
2022/09/15 07:44:01;;;;;;;3.43;2.63;;;15.70;99.90;;;;;;5011684;28;20204;-50
2022/09/15 07:46:31;;;;;;;2.60;2.40;;;15.70;99.90;;;;;;5012293;28;21006;-49
2022/09/15 07:48:59;;;;;;;5.33;3.10;;;15.50;99.90;;;;;;5011434;28;20483;-49
2022/09/15 07:51:26;;;;;;;4.60;2.90;;;15.40;99.90;;;;;;5012113;28;20442;-50
2022/09/15 07:53:54;;;;;;;2.93;2.47;;;15.50;99.90;;;;;;5011904;28;20439;-50
2022/09/15 07:56:22;;;;;;;8.03;7.23;;;15.40;99.90;;;;;;5011919;28;20848;-50
2022/09/15 07:58:51;;;;;;;2.70;2.07;;;15.70;99.90;;;;;;5011133;28;20455;-50
2022/09/15 08:01:21;;;;;;;3.00;2.50;;;15.70;99.90;;;;;;5012020;28;20431;-50
2022/09/15 08:03:50;;;;;;;3.70;2.23;;;16.10;99.90;;;;;;5012250;28;20466;-50
2022/09/15 08:06:19;;;;;;;3.90;2.43;;;16.20;99.90;;;;;;5011590;28;20921;-51
2022/09/15 08:08:46;;;;;;;2.33;1.40;;;16.40;99.90;;;;;;5009250;28;20478;-48
2022/09/15 08:11:16;;;;;;;2.80;1.50;;;16.50;99.90;;;;;;5011527;28;20489;-50
2022/09/15 08:13:44;;;;;;;4.30;2.03;;;16.80;99.90;;;;;;5011376;28;20509;-52
2022/09/15 08:16:14;;;;;;;3.30;1.60;;;17.00;99.90;;;;;;5011711;28;20599;-50
2022/09/15 08:18:42;;;;;;;4.53;1.10;;;17.10;99.90;;;;;;5011291;28;20451;-48
2022/09/15 08:21:12;;;;;;;2.60;1.37;;;17.00;99.90;;;;;;5011500;28;20431;-50
2022/09/15 08:23:40;;;;;;;2.07;1.27;;;17.00;99.90;;;;;;5011779;28;20447;-50
2022/09/15 08:26:08;;;;;;;2.03;1.43;;;16.90;99.90;;;;;;5012090;28;20505;-50
2022/09/15 08:28:35;;;;;;;4.67;2.03;;;16.90;99.90;;;;;;5011155;28;20482;-49
2022/09/15 08:31:04;;;;;;;1.77;1.20;;;16.80;99.90;;;;;;5010734;28;20451;-50
2022/09/15 08:33:32;;;;;;;2.30;1.20;;;16.80;99.90;;;;;;5011547;28;20525;-50
2022/09/15 08:36:02;;;;;;;2.60;1.70;;;17.00;99.90;;;;;;5011404;28;20490;-50
2022/09/15 08:38:29;;;;;;;3.67;1.67;;;17.10;99.90;;;;;;5011250;28;20521;-51
2022/09/15 08:40:59;;;;;;;2.97;1.63;;;17.30;99.90;;;;;;5010680;28;20447;-50
2022/09/15 08:43:29;;;;;;;1.92;1.05;;;17.40;99.90;;;;;;5010578;28;20447;-50
2022/09/15 08:46:01;;;;;;;2.90;1.20;;;17.40;99.90;;;;;;5011109;28;20670;-50
2022/09/15 08:48:31;;;;;;;2.07;1.10;;;17.50;99.90;;;;;;5010881;28;20514;-50
2022/09/15 08:51:06;;;;;;;2.23;1.20;;;17.60;99.90;;;;;;5010715;28;20866;-50
2022/09/15 08:53:38;;;;;;;2.47;0.87;;;17.70;99.90;;;;;;5011524;28;20482;-50
2022/09/15 08:56:14;;;;;;;2.20;1.20;;;17.80;99.90;;;;;;5011229;28;20432;-50
2022/09/15 08:58:41;;;;;;;2.40;1.27;;;18.10;99.90;;;;;;5010646;28;20570;-49
2022/09/15 09:01:32;;;;;;;2.13;0.90;;;18.10;99.90;;;;;;5011269;28;20493;-50
2022/09/15 09:04:17;;;;;;;1.53;0.90;;;18.10;99.90;;;;;;5011584;28;20455;-50
2022/09/15 09:06:59;;;;;;;1.60;0.90;;;17.90;99.90;;;;;;5011251;28;20483;-50
2022/09/15 09:09:34;;;;;;;2.03;1.00;;;17.90;99.90;;;;;;5009028;28;20573;-50
2022/09/15 09:12:32;;;;;;;2.00;1.00;;;18.00;99.90;;;;;;5011118;28;20621;-52
2022/09/15 09:15:19;;;;;;;1.50;1.00;;;18.10;99.90;;;;;;5005354;28;20455;-51
2022/09/15 09:18:06;;;;;;;1.60;0.90;;;18.20;99.90;;;;;;5011625;28;20450;-50
2022/09/15 09:20:42;;;;;;;6.00;1.37;;;18.10;99.90;;;;;;5010784;28;20435;-50
2022/09/15 09:23:14;;;;;;;3.57;1.10;;;18.20;99.90;;;;;;5011512;28;20509;-50
2022/09/15 09:25:43;;;;;;;3.70;1.23;;;18.30;99.90;;;;;;5011406;28;20521;-50
2022/09/15 09:28:23;;;;;;;2.43;1.23;;;18.60;99.90;;;;;;5011243;28;20549;-50
2022/09/15 09:30:50;;;;;;;1.53;1.03;;;18.70;99.90;;;;;;5010838;28;20455;-50
2022/09/15 09:33:29;;;;;;;3.30;1.73;;;18.90;99.90;;;;;;5011196;28;20475;-52
2022/09/15 09:36:00;;;;;;;3.60;1.80;;;18.90;99.90;;;;;;5011115;28;20942;-50
2022/09/15 09:38:32;;;;;;;3.93;1.50;;;18.90;99.90;;;;;;5011246;28;20470;-50
2022/09/15 09:40:59;;;;;;;3.10;1.20;;;18.90;99.90;;;;;;5010565;28;20455;-50
2022/09/15 09:43:27;;;;;;;4.03;1.67;;;18.90;99.90;;;;;;5010688;28;20482;-50
2022/09/15 09:45:54;;;;;;;3.77;1.00;;;18.80;99.90;;;;;;5011413;28;20454;-51
2022/09/15 09:48:24;;;;;;;3.23;0.90;;;18.70;99.90;;;;;;5010694;28;20502;-52
2022/09/15 09:50:51;;;;;;;1.40;0.90;;;18.90;99.90;;;;;;5012740;28;20945;-51
2022/09/15 09:53:24;;;;;;;2.13;1.10;;;18.90;99.90;;;;;;5014558;28;20455;-52
2022/09/15 09:55:53;;;;;;;3.20;0.97;;;19.20;99.90;;;;;;5014829;28;20923;-50
2022/09/15 09:58:23;;;;;;;1.90;1.00;;;19.40;99.90;;;;;;5014237;28;20458;-50
2022/09/15 10:00:51;;;;;;;2.40;0.97;;;19.50;99.90;;;;;;5013848;28;20587;-52
2022/09/15 10:03:20;;;;;;;3.10;0.90;;;19.30;99.90;;;;;;5014593;28;20804;-52
2022/09/15 10:06:01;;;;;;;4.43;1.13;;;19.30;99.90;;;;;;5014367;28;20435;-50
2022/09/15 10:08:29;;;;;;;4.10;1.13;;;19.40;99.90;;;;;;5012578;28;20508;-50
2022/09/15 10:11:05;;;;;;;3.20;1.00;;;19.50;99.90;;;;;;5013957;28;20502;-50
2022/09/15 10:13:34;;;;;;;1.30;1.00;;;19.50;99.90;;;;;;5014340;28;20459;-51
2022/09/15 10:16:04;;;;;;;3.40;1.07;;;19.40;99.90;;;;;;5014053;28;20853;-50
2022/09/15 10:18:34;;;;;;;4.23;1.50;;;19.30;99.90;;;;;;5014016;28;20484;-53
2022/09/15 10:21:02;;;;;;;2.43;1.40;;;19.50;99.90;;;;;;5013218;28;20485;-50
2022/09/15 10:23:31;;;;;;;1.97;1.10;;;19.80;99.90;;;;;;5013701;28;20483;-50
2022/09/15 10:26:21;;;;;;;2.83;1.25;;;19.50;99.90;;;;;;5013361;28;20432;-52
2022/09/15 10:29:15;;;;;;;1.97;1.20;;;19.30;99.90;;;;;;5013884;28;20232;-52
2022/09/15 10:31:43;;;;;;;3.00;1.00;;;19.80;99.90;;;;;;5013975;28;20449;-50
2022/09/15 10:34:30;;;;;;;2.37;1.30;;;19.80;99.90;;;;;;5013571;28;20471;-50
2022/09/15 10:37:07;;;;;;;1.80;1.10;;;19.50;99.90;;;;;;5012729;28;20931;-50
2022/09/15 10:39:48;;;;;;;1.97;0.90;;;19.80;99.90;;;;;;5013145;28;20451;-50
2022/09/15 10:42:25;;;;;;;1.60;1.27;;;19.90;99.90;;;;;;5013072;28;20446;-51
2022/09/15 10:45:03;;;;;;;4.63;1.47;;;20.00;99.90;;;;;;5013288;28;20438;-51
2022/09/15 10:47:41;;;;;;;2.40;0.90;;;20.10;99.90;;;;;;5013179;28;20453;-51
2022/09/15 10:50:16;;;;;;;3.33;0.80;;;20.10;99.90;;;;;;5012468;28;21088;-50
2022/09/15 10:53:00;;;;;;;1.50;0.90;;;19.90;99.90;;;;;;5013834;28;20435;-50
2022/09/15 10:55:38;;;;;;;1.43;0.90;;;19.90;99.90;;;;;;5013198;28;20514;-50
2022/09/15 10:58:29;;;;;;;1.50;1.10;;;20.10;99.90;;;;;;5013201;28;20483;-51
2022/09/15 11:01:12;;;;;;;2.80;1.20;;;20.20;99.90;;;;;;5012324;28;20497;-51
2022/09/15 11:04:05;;;;;;;3.00;1.20;;;20.60;99.90;;;;;;5012467;28;20443;-50
2022/09/15 11:06:37;;;;;;;2.20;1.10;;;20.40;99.90;;;;;;5013043;28;20455;-50
2022/09/15 11:09:14;;;;;;;2.53;0.90;;;20.40;99.90;;;;;;5010544;28;20570;-52
2022/09/15 11:11:57;;;;;;;2.42;1.00;;;20.50;99.90;;;;;;5012662;28;20438;-50
2022/09/15 11:14:38;;;;;;;1.40;0.90;;;20.70;99.90;;;;;;5012775;28;20475;-50
2022/09/15 11:17:26;;;;;;;1.90;0.80;;;20.80;99.90;;;;;;5012698;28;20507;-51
2022/09/15 11:20:16;;;;;;;1.67;1.27;;;20.60;99.90;;;;;;5012142;28;20491;-51
2022/09/15 11:22:50;;;;;;;2.40;1.43;;;21.10;99.90;;;;;;5012546;28;20470;-50
2022/09/15 11:25:20;;;;;;;1.70;1.10;;;20.90;99.90;;;;;;5012702;28;20537;-50
2022/09/15 11:27:52;;;;;;;3.43;1.37;;;20.40;99.90;;;;;;5012537;28;20502;-50
2022/09/15 11:30:24;;;;;;;1.93;1.20;;;20.10;99.90;;;;;;5011602;28;20837;-50
2022/09/15 11:32:56;;;;;;;1.80;1.40;;;20.20;99.90;;;;;;5012421;28;20582;-50
2022/09/15 11:35:42;;;;;;;3.63;1.77;;;20.10;99.90;;;;;;5012042;28;21024;-50
2022/09/15 11:38:21;;;;;;;5.60;1.87;;;20.00;99.90;;;;;;5011653;28;20467;-50
2022/09/15 11:40:53;;;;;;;2.35;1.83;;;19.90;99.90;;;;;;5011712;28;20435;-52
2022/09/15 11:43:30;;;;;;;2.20;1.90;;;19.80;99.90;;;;;;5011671;28;20615;-50
2022/09/15 11:46:01;;;;;;;1.93;1.60;;;19.80;99.90;;;;;;5012604;28;20528;-50
2022/09/15 11:48:33;;;;;;;2.23;1.57;;;19.80;99.90;;;;;;5011752;28;20451;-50
2022/09/15 11:51:02;;;;;;;2.67;2.20;;;19.70;99.90;;;;;;5011090;28;20976;-50
2022/09/15 11:53:37;;;;;;;3.00;1.70;;;19.80;99.90;;;;;;5011859;28;20470;-50
2022/09/15 11:56:13;;;;;;;2.83;1.60;;;19.90;99.90;;;;;;5011712;28;20443;-48
2022/09/15 11:58:54;;;;;;;1.80;1.43;;;20.10;99.90;;;;;;5011124;28;20844;-48
2022/09/15 12:01:27;;;;;;;2.17;1.90;;;20.20;99.90;;;;;;5011615;28;20470;-50
2022/09/15 12:03:58;;;;;;;2.28;1.63;;;20.00;99.90;;;;;;5011885;28;20492;-52
2022/09/15 12:06:32;;;;;;;2.70;1.90;;;19.90;99.90;;;;;;5012354;28;20199;-51
2022/09/15 12:09:01;;;;;;;2.30;1.60;;;20.00;99.90;;;;;;5010140;28;20461;-50
2022/09/15 12:11:32;;;;;;;2.30;1.43;;;19.90;99.90;;;;;;5012548;28;20432;-51
2022/09/15 12:14:02;;;;;;;5.73;2.37;;;20.00;99.90;;;;;;5011378;28;20435;-51
2022/09/15 12:16:33;;;;;;;3.00;1.80;;;20.10;99.90;;;;;;5011876;28;20516;-50
2022/09/15 12:19:03;;;;;;;3.15;2.42;;;20.00;99.90;;;;;;5011418;28;20460;-51
2022/09/15 12:21:36;;;;;;;3.60;2.60;;;20.00;99.90;;;;;;5011608;28;20197;-50
2022/09/15 12:24:12;;;;;;;2.70;2.27;;;20.00;99.90;;;;;;5011753;28;20836;-51
2022/09/15 12:26:42;;;;;;;3.77;2.27;;;20.00;99.90;;;;;;5011302;28;20493;-50
2022/09/15 12:29:31;;;;;;;6.60;2.37;;;20.10;99.90;;;;;;5011218;28;20487;-50
2022/09/15 12:32:27;;;;;;;14.23;4.07;;;20.00;99.90;;;;;;5011938;28;20438;-50
2022/09/15 12:35:00;;;;;;;9.93;3.07;;;20.00;99.90;;;;;;5011103;28;20549;-51
2022/09/15 12:37:35;;;;;;;6.70;2.53;;;20.00;99.90;;;;;;5011573;28;20474;-51
2022/09/15 12:40:04;;;;;;;11.30;3.30;;;20.00;99.90;;;;;;5011000;28;20450;-52
2022/09/15 12:42:32;;;;;;;2.37;2.13;;;20.10;99.90;;;;;;5011609;28;20769;-50
2022/09/15 12:45:02;;;;;;;3.60;2.00;;;20.10;99.90;;;;;;5011276;28;20494;-51
2022/09/15 12:47:36;;;;;;;2.13;1.77;;;20.10;99.90;;;;;;5011911;28;20474;-50
2022/09/15 12:50:27;;;;;;;2.57;1.90;;;20.00;99.90;;;;;;5010696;28;20473;-50
2022/09/15 12:52:59;;;;;;;3.00;1.67;;;20.00;99.90;;;;;;5011418;28;20505;-50
2022/09/15 12:55:30;;;;;;;6.63;1.97;;;20.10;99.90;;;;;;5011233;28;20474;-50
2022/09/15 12:58:00;;;;;;;2.13;1.93;;;20.10;99.90;;;;;;5012156;28;20477;-52
2022/09/15 13:00:38;;;;;;;2.80;1.70;;;20.10;99.90;;;;;;5010859;28;20434;-48
2022/09/15 13:03:28;;;;;;;3.38;1.83;;;20.30;99.90;;;;;;5011349;28;20450;-52
2022/09/15 13:06:18;;;;;;;3.13;2.00;;;20.50;99.90;;;;;;5011153;28;20222;-45
2022/09/15 13:08:53;;;;;;;3.55;2.40;;;20.50;99.90;;;;;;5009350;28;20976;-50